Time;durP1;ratioP1;P1;durP2;ratioP2;P2;SDS_P1;SDS_P2;PMS_P1;PMS_P2;Temp;Humidity;BMP_temperature;BMP_pressure;BME280_temperature;BME280_humidity;BME280_pressure;Samples;Min_cycle;Max_cycle;Signal;HPM_P1;HPM_P2
2021/11/28 00:01:39;;;;;;;8.35;2.87;;;;;;;14.82;63.91;100765.30;1840578;78;21014;-59
2021/11/28 00:04:08;;;;;;;8.18;3.12;;;;;;;14.83;63.74;100769.67;1841221;78;21493;-59
2021/11/28 00:06:39;;;;;;;8.68;3.30;;;;;;;14.80;63.83;100768.52;1841117;78;21132;-60
2021/11/28 00:09:29;;;;;;;6.95;2.70;;;;;;;14.79;64.02;100776.95;1841550;78;21139;-59
2021/11/28 00:12:08;;;;;;;5.37;2.65;;;;;;;14.81;64.22;100767.55;1838251;77;21057;-59
2021/11/28 00:14:19;;;;;;;6.20;3.12;;;;;;;14.80;64.28;100781.77;1838161;77;21071;-59
2021/11/28 00:16:47;;;;;;;11.45;4.22;;;;;;;14.83;64.46;100792.20;1841237;78;21546;-59
2021/11/28 00:19:16;;;;;;;6.80;2.40;;;;;;;14.83;64.46;100777.62;1841543;78;21125;-60
2021/11/28 00:21:45;;;;;;;6.25;2.90;;;;;;;14.85;64.46;100772.61;1841522;78;21097;-59
2021/11/28 00:24:14;;;;;;;6.15;2.77;;;;;;;14.83;64.19;100767.88;1840726;78;21129;-60
2021/11/28 00:26:44;;;;;;;9.53;5.25;;;;;;;14.84;64.25;100768.23;1837811;78;21473;-59
2021/11/28 00:29:13;;;;;;;5.70;2.60;;;;;;;14.84;64.21;100760.77;1841250;78;21109;-60
2021/11/28 00:31:41;;;;;;;6.42;2.52;;;;;;;14.84;64.32;100767.39;1841140;78;21109;-60
2021/11/28 00:34:10;;;;;;;6.60;2.98;;;;;;;14.83;64.23;100763.89;1841182;78;21107;-60
2021/11/28 00:36:39;;;;;;;5.72;2.55;;;;;;;14.83;64.25;100745.34;1841351;78;21010;-60
2021/11/28 00:39:09;;;;;;;6.87;3.05;;;;;;;14.88;64.16;100748.19;1841412;78;21036;-60
2021/11/28 00:41:37;;;;;;;10.90;3.15;;;;;;;14.91;64.03;100769.23;1841270;78;21039;-60
2021/11/28 00:44:06;;;;;;;5.15;2.40;;;;;;;14.91;64.04;100770.08;1841175;78;21070;-62
2021/11/28 00:46:35;;;;;;;7.62;2.87;;;;;;;14.93;64.15;100753.61;1836155;78;21464;-60
2021/11/28 00:49:11;;;;;;;7.10;3.05;;;;;;;15.01;64.16;100769.08;1840094;77;21140;-60
2021/11/28 00:51:36;;;;;;;5.85;2.65;;;;;;;15.02;64.13;100762.37;1844082;78;21062;-60
2021/11/28 00:54:05;;;;;;;7.45;2.70;;;;;;;15.02;64.21;100762.84;1845078;78;21030;-60
2021/11/28 00:56:34;;;;;;;5.97;2.45;;;;;;;15.01;64.23;100764.66;1844600;77;21476;-60
2021/11/28 00:59:03;;;;;;;9.78;2.55;;;;;;;15.04;64.34;100762.28;1835694;78;21591;-60
2021/11/28 01:01:34;;;;;;;5.95;2.77;;;;;;;15.09;64.23;100760.68;1835212;78;21070;-60
2021/11/28 01:04:03;;;;;;;5.67;2.92;;;;;;;15.11;64.15;100764.12;1835664;78;21489;-60
2021/11/28 01:06:32;;;;;;;8.25;3.30;;;;;;;15.14;63.99;100765.25;1835670;78;21493;-60
2021/11/28 01:09:02;;;;;;;6.92;2.37;;;;;;;15.11;64.08;100756.17;1835734;78;21485;-60
2021/11/28 01:11:32;;;;;;;6.37;2.83;;;;;;;15.10;64.09;100759.75;1835684;78;21133;-60
2021/11/28 01:14:01;;;;;;;6.80;2.98;;;;;;;15.08;64.11;100757.66;1835655;78;21140;-60
2021/11/28 01:16:33;;;;;;;8.23;3.45;;;;;;;15.05;64.13;100758.23;1835591;78;21055;-60
2021/11/28 01:19:02;;;;;;;7.75;2.30;;;;;;;15.08;64.22;100772.25;1835641;78;21124;-60
2021/11/28 01:21:31;;;;;;;8.58;3.05;;;;;;;15.06;64.25;100775.83;1835659;78;21509;-60
2021/11/28 01:24:00;;;;;;;9.00;2.47;;;;;;;15.04;64.29;100772.41;1835587;78;21604;-60
2021/11/28 01:26:31;;;;;;;5.78;2.30;;;;;;;15.04;64.23;100767.11;1835653;78;21177;-60
2021/11/28 01:29:00;;;;;;;8.18;3.02;;;;;;;15.05;64.24;100749.42;1835773;78;21586;-60
2021/11/28 01:31:30;;;;;;;8.00;3.10;;;;;;;15.02;64.38;100757.06;1835783;78;21067;-60
2021/11/28 01:33:58;;;;;;;5.30;2.58;;;;;;;15.00;64.42;100751.48;1835628;78;21109;-59
2021/11/28 01:36:28;;;;;;;5.70;2.40;;;;;;;14.97;64.49;100751.16;1834773;78;21129;-57
2021/11/28 01:38:56;;;;;;;5.53;2.65;;;;;;;14.96;64.52;100741.52;1835605;78;21600;-61
2021/11/28 01:41:25;;;;;;;11.73;3.17;;;;;;;14.99;64.74;100757.23;1835389;78;21473;-61
2021/11/28 01:43:56;;;;;;;7.05;2.62;;;;;;;14.99;64.74;100742.64;1835595;78;21066;-61
2021/11/28 01:46:27;;;;;;;6.22;3.15;;;;;;;14.98;64.64;100748.91;1835894;78;21070;-61
2021/11/28 01:48:57;;;;;;;6.55;2.67;;;;;;;14.94;64.94;100726.17;1835675;78;21042;-60
2021/11/28 01:51:28;;;;;;;10.35;2.87;;;;;;;14.92;64.89;100752.37;1835608;78;21086;-60
2021/11/28 01:53:57;;;;;;;5.05;2.55;;;;;;;14.91;64.95;100748.03;1835374;78;21548;-60
2021/11/28 01:56:27;;;;;;;8.05;3.25;;;;;;;14.86;64.84;100748.27;1834955;78;21545;-67
2021/11/28 01:58:56;;;;;;;9.18;3.12;;;;;;;14.83;65.07;100756.42;1821850;77;21213;-64
2021/11/28 02:01:25;;;;;;;6.12;3.02;;;;;;;14.80;65.01;100748.63;1833969;78;21125;-65
2021/11/28 02:03:55;;;;;;;7.00;2.85;;;;;;;14.77;65.13;100752.33;1816911;78;21054;-62
2021/11/28 02:06:24;;;;;;;10.05;2.90;;;;;;;14.79;65.27;100756.19;1804436;79;21109;-63
2021/11/28 02:08:53;;;;;;;10.80;3.25;;;;;;;14.81;65.19;100744.58;1804304;79;21193;-63
2021/11/28 02:11:24;;;;;;;7.28;2.87;;;;;;;14.82;65.04;100746.27;1804247;78;21596;-59
2021/11/28 02:13:54;;;;;;;6.37;2.80;;;;;;;14.82;65.05;100747.59;1804138;79;21105;-60
2021/11/28 02:16:23;;;;;;;8.78;3.27;;;;;;;14.85;64.93;100732.00;1839297;78;21098;-60
2021/11/28 02:18:53;;;;;;;7.67;2.80;;;;;;;14.89;64.86;100753.41;1851390;77;21147;-61
2021/11/28 02:21:22;;;;;;;6.62;2.65;;;;;;;14.88;64.80;100759.64;1840093;78;21054;-61
2021/11/28 02:23:51;;;;;;;6.90;2.42;;;;;;;14.88;64.73;100736.27;1786666;79;21566;-62
2021/11/28 02:26:21;;;;;;;8.05;2.90;;;;;;;14.85;64.72;100735.50;1841103;78;21109;-61
2021/11/28 02:28:50;;;;;;;7.08;2.65;;;;;;;14.86;64.64;100742.97;1841373;78;21047;-60
2021/11/28 02:31:19;;;;;;;7.30;2.77;;;;;;;14.86;64.61;100737.67;1841197;78;21148;-63
2021/11/28 02:33:48;;;;;;;6.42;3.00;;;;;;;14.87;64.54;100743.38;1818657;78;21599;-62
2021/11/28 02:36:17;;;;;;;8.30;3.33;;;;;;;14.83;64.50;100742.69;1804382;79;21129;-61
2021/11/28 02:38:47;;;;;;;10.23;3.55;;;;;;;14.82;64.58;100750.72;1804362;79;21490;-60
2021/11/28 02:41:17;;;;;;;11.18;3.00;;;;;;;14.83;64.57;100756.42;1804339;78;21154;-60
2021/11/28 02:43:46;;;;;;;8.25;3.30;;;;;;;14.81;64.68;100749.00;1804576;79;21063;-62
2021/11/28 02:46:16;;;;;;;8.68;3.30;;;;;;;14.80;64.69;100747.31;1804048;79;21090;-63
2021/11/28 02:48:45;;;;;;;7.40;2.33;;;;;;;14.78;64.73;100751.84;1804334;79;21670;-61
2021/11/28 02:51:14;;;;;;;6.12;3.05;;;;;;;14.77;64.69;100754.09;1804362;79;21481;-64
2021/11/28 02:53:43;;;;;;;5.70;2.67;;;;;;;14.72;64.74;100748.19;1804241;79;21577;-61
2021/11/28 02:56:13;;;;;;;7.62;2.98;;;;;;;14.64;64.76;100746.86;1804449;78;21083;-60
2021/11/28 02:58:42;;;;;;;8.30;3.27;;;;;;;14.61;64.89;100754.97;1804276;78;21142;-60
2021/11/28 03:01:16;;;;;;;7.37;3.15;;;;;;;14.58;65.05;100756.93;1823217;77;21070;-60
2021/11/28 03:03:59;;;;;;;11.33;2.90;;;;;;;14.56;65.31;100749.03;1833450;78;21058;-62
2021/11/28 03:06:28;;;;;;;8.45;3.05;;;;;;;14.62;65.20;100779.19;1817969;78;21043;-64
2021/11/28 03:08:57;;;;;;;6.55;2.72;;;;;;;14.63;65.22;100786.20;1830173;78;21537;-63
2021/11/28 03:11:26;;;;;;;8.13;3.37;;;;;;;14.63;65.06;100776.94;1804387;79;21493;-60
2021/11/28 03:13:57;;;;;;;5.97;2.05;;;;;;;14.60;64.97;100783.72;1804399;79;21022;-62
2021/11/28 03:16:27;;;;;;;7.83;2.58;;;;;;;14.54;65.03;100773.44;1805776;77;21141;-63
2021/11/28 03:18:56;;;;;;;6.50;2.98;;;;;;;14.52;64.97;100771.34;1841090;77;21215;-60
2021/11/28 03:21:31;;;;;;;9.03;3.12;;;;;;;14.48;64.97;100773.78;1830038;77;21035;-61
2021/11/28 03:24:02;;;;;;;6.75;2.60;;;;;;;14.42;65.02;100771.00;1849428;77;21035;-60
2021/11/28 03:26:40;;;;;;;5.35;2.77;;;;;;;14.40;65.04;100778.63;1841973;77;21058;-60
2021/11/28 03:29:13;;;;;;;7.35;2.92;;;;;;;14.36;64.98;100783.71;1846511;77;21063;-61
2021/11/28 03:32:02;;;;;;;6.45;2.50;;;;;;;14.36;64.98;100783.71;1826963;77;21097;-61
2021/11/28 03:34:39;;;;;;;8.60;3.47;;;;;;;14.32;64.97;100776.88;1857771;77;21187;-64
2021/11/28 03:37:35;;;;;;;9.38;3.27;;;;;;;14.28;64.98;100783.66;1857843;77;21486;-63
2021/11/28 03:40:08;;;;;;;6.17;2.62;;;;;;;14.24;65.01;100784.77;1950086;73;21155;-62
2021/11/28 03:42:37;;;;;;;9.00;3.35;;;;;;;14.22;65.16;100781.79;1934363;73;21064;-59
2021/11/28 03:45:09;;;;;;;8.45;2.52;;;;;;;14.23;65.04;100783.04;1931448;74;21112;-59
2021/11/28 03:47:39;;;;;;;9.03;2.77;;;;;;;14.20;65.11;100789.84;1898241;74;21029;-58
2021/11/28 03:50:09;;;;;;;8.45;3.27;;;;;;;14.17;65.15;100776.76;1931286;73;21421;-58
2021/11/28 03:52:39;;;;;;;5.72;2.87;;;;;;;14.12;65.20;100773.49;1931313;74;21095;-59
2021/11/28 03:55:10;;;;;;;4.55;2.60;;;;;;;14.11;65.45;100770.48;1931257;74;21103;-58
2021/11/28 03:57:39;;;;;;;6.70;3.08;;;;;;;14.16;65.61;100767.56;1932303;73;21099;-59
2021/11/28 04:00:11;;;;;;;4.53;2.50;;;;;;;14.20;65.65;100769.98;1948743;73;21567;-61
2021/11/28 04:02:42;;;;;;;7.30;2.72;;;;;;;14.20;65.60;100774.40;1947272;74;21149;-59
2021/11/28 04:05:11;;;;;;;9.68;3.62;;;;;;;14.22;65.67;100776.05;1948690;74;21132;-60
2021/11/28 04:07:41;;;;;;;8.45;3.25;;;;;;;14.22;65.56;100776.05;1947642;73;21079;-60
2021/11/28 04:10:12;;;;;;;7.58;3.40;;;;;;;14.19;65.66;100776.68;1935223;73;21081;-59
2021/11/28 04:12:40;;;;;;;11.48;4.72;;;;;;;14.15;65.76;100778.63;1925750;73;21477;-61
2021/11/28 04:15:11;;;;;;;7.00;2.40;;;;;;;14.13;65.90;100776.54;1925995;74;21036;-62
2021/11/28 04:17:42;;;;;;;8.98;2.95;;;;;;;14.08;65.99;100769.30;1925549;73;21092;-61
2021/11/28 04:20:11;;;;;;;9.20;3.15;;;;;;;14.03;66.04;100775.30;1925829;74;21029;-61
2021/11/28 04:22:40;;;;;;;10.68;2.92;;;;;;;13.97;66.19;100778.28;1925902;74;21447;-63
2021/11/28 04:25:14;;;;;;;7.83;3.37;;;;;;;13.90;66.28;100774.62;1925928;74;21028;-61
2021/11/28 04:27:43;;;;;;;7.67;2.90;;;;;;;13.83;66.53;100773.70;1925853;74;21032;-61
2021/11/28 04:30:14;;;;;;;9.48;3.30;;;;;;;13.79;66.79;100778.30;1925830;73;21059;-61
2021/11/28 04:32:43;;;;;;;8.45;2.95;;;;;;;13.77;66.95;100780.64;1926040;73;21056;-62
2021/11/28 04:35:13;;;;;;;7.42;2.85;;;;;;;13.73;67.06;100782.59;1925948;74;21458;-61
2021/11/28 04:37:42;;;;;;;6.50;3.15;;;;;;;13.72;67.31;100774.25;1925739;73;21054;-63
2021/11/28 04:40:11;;;;;;;4.85;3.33;;;;;;;13.71;67.44;100783.14;1911613;73;21061;-63
2021/11/28 04:42:41;;;;;;;6.35;3.20;;;;;;;13.68;67.45;100784.61;1889903;76;21108;-56
2021/11/28 04:45:11;;;;;;;8.13;3.40;;;;;;;13.65;67.67;100790.08;1892845;74;21099;-57
2021/11/28 04:47:41;;;;;;;8.45;3.33;;;;;;;13.64;67.81;100785.71;1915404;74;21036;-62
2021/11/28 04:50:13;;;;;;;7.37;3.10;;;;;;;13.66;67.96;100786.48;1909375;74;21106;-63
2021/11/28 04:52:44;;;;;;;5.33;2.62;;;;;;;13.65;67.86;100787.44;1903994;74;21100;-61
2021/11/28 04:55:14;;;;;;;6.45;2.70;;;;;;;13.64;67.74;100797.61;1924246;74;21001;-60
2021/11/28 04:57:44;;;;;;;8.00;2.87;;;;;;;13.61;67.70;100797.77;1924585;74;21090;-60
2021/11/28 05:00:22;;;;;;;7.17;2.75;;;;;;;13.61;67.87;100795.11;1924547;74;21045;-60
2021/11/28 05:02:56;;;;;;;12.68;3.30;;;;;;;13.64;68.06;100795.81;1924221;73;21599;-59
2021/11/28 05:05:27;;;;;;;12.93;4.03;;;;;;;13.69;67.99;100795.59;1924576;74;21057;-60
2021/11/28 05:07:57;;;;;;;14.90;5.53;;;;;;;13.74;67.94;100791.38;1924514;74;21475;-60
2021/11/28 05:10:27;;;;;;;14.45;5.70;;;;;;;13.74;67.92;100780.34;1902137;74;21869;-62
2021/11/28 05:12:58;;;;;;;12.13;3.90;;;;;;;13.75;67.78;100783.36;1891145;74;21202;-61
2021/11/28 05:15:28;;;;;;;10.55;3.60;;;;;;;13.76;68.22;100781.12;1890277;76;21548;-62
2021/11/28 05:18:08;;;;;;;8.55;3.67;;;;;;;13.79;68.17;100782.27;1825666;78;21120;-62
2021/11/28 05:20:38;;;;;;;5.03;2.50;;;;;;;13.79;68.04;100783.59;1875064;76;21151;-61
2021/11/28 05:23:06;;;;;;;6.58;3.00;;;;;;;13.79;68.16;100777.45;1889885;75;21470;-60
2021/11/28 05:25:36;;;;;;;11.18;3.62;;;;;;;13.79;68.03;100783.59;1889760;75;21043;-60
2021/11/28 05:28:10;;;;;;;10.70;3.40;;;;;;;13.80;68.13;100787.96;1890579;76;21118;-61
2021/11/28 05:30:39;;;;;;;;;;;;;;;13.84;68.08;100786.01;1894085;75;21010;-61
2021/11/28 05:33:24;;;;;;;6.25;2.67;;;;;;;13.84;67.96;100790.83;1805459;78;20153;-60
2021/11/28 05:36:12;;;;;;;7.35;2.67;;;;;;;13.87;67.88;100789.36;1874480;75;21158;-60
2021/11/28 05:38:44;;;;;;;7.78;3.25;;;;;;;13.94;67.76;100792.52;1881316;76;21451;-61
2021/11/28 05:41:13;;;;;;;7.67;3.02;;;;;;;13.99;67.66;100793.62;1949003;73;21057;-59
2021/11/28 05:43:44;;;;;;;11.93;2.98;;;;;;;14.05;67.53;100794.61;1953670;73;21476;-60
2021/11/28 05:46:12;;;;;;;10.38;2.80;;;;;;;14.07;67.43;100793.61;1954033;73;21042;-59
2021/11/28 05:48:46;;;;;;;6.53;2.80;;;;;;;14.08;67.29;100789.16;1944407;73;21030;-59
2021/11/28 05:51:22;;;;;;;6.17;2.92;;;;;;;14.06;67.23;100786.59;1949629;73;21041;-61
2021/11/28 05:53:51;;;;;;;9.18;3.27;;;;;;;14.08;67.17;100782.06;1953728;73;21041;-61
2021/11/28 05:56:20;;;;;;;8.50;2.85;;;;;;;14.17;67.12;100786.02;1953833;73;21030;-61
2021/11/28 05:58:51;;;;;;;6.58;2.87;;;;;;;14.22;66.94;100783.11;1953830;73;21119;-59
2021/11/28 06:01:20;;;;;;;8.53;3.35;;;;;;;14.28;66.78;100781.00;1953726;73;21069;-59
2021/11/28 06:03:49;;;;;;;10.78;3.00;;;;;;;14.38;66.68;100783.16;1953788;73;21433;-60
2021/11/28 06:06:32;;;;;;;10.58;2.52;;;;;;;14.50;66.46;100785.14;1917583;75;21550;-59
2021/11/28 06:09:03;;;;;;;7.08;3.42;;;;;;;14.69;66.19;100788.98;1937511;73;21039;-59
2021/11/28 06:11:32;;;;;;;6.40;3.08;;;;;;;14.93;65.90;100784.11;1950829;73;21018;-61
2021/11/28 06:14:01;;;;;;;16.42;5.15;;;;;;;15.24;65.45;100788.99;1950900;73;21031;-62
2021/11/28 06:16:47;;;;;;;9.13;4.25;;;;;;;15.69;64.87;100795.18;1950741;73;21141;-62
2021/11/28 06:19:23;;;;;;;9.18;3.22;;;;;;;16.45;63.98;100796.81;1902326;73;21070;-62
2021/11/28 06:22:10;;;;;;;12.90;3.55;;;;;;;17.32;62.82;100786.34;1950740;73;21144;-60
2021/11/28 06:24:41;;;;;;;9.95;3.75;;;;;;;18.33;61.28;100787.88;1949895;73;21057;-62
2021/11/28 06:27:12;;;;;;;9.13;4.00;;;;;;;19.04;59.75;100777.95;1949925;73;21139;-62
2021/11/28 06:29:41;;;;;;;15.75;5.10;;;;;;;19.68;58.25;100781.09;1950902;73;21035;-60
2021/11/28 06:32:09;;;;;;;22.15;7.58;;;;;;;20.28;57.12;100785.45;1950754;73;21165;-62
2021/11/28 06:34:46;;;;;;;13.20;4.95;;;;;;;20.72;56.06;100785.92;1953770;73;21038;-60
2021/11/28 06:37:35;;;;;;;16.80;4.95;;;;;;;21.37;54.64;100789.48;1919191;75;21594;-62
2021/11/28 06:40:22;;;;;;;12.00;4.33;;;;;;;21.97;53.58;100789.79;1917415;74;21151;-62
2021/11/28 06:43:01;;;;;;;12.05;4.47;;;;;;;22.46;51.94;100781.14;1943482;74;21516;-59
2021/11/28 06:45:30;;;;;;;10.72;3.92;;;;;;;22.99;50.82;100777.31;1947457;74;21039;-61
2021/11/28 06:48:00;;;;;;;16.48;4.28;;;;;;;23.01;50.31;100774.83;1947226;74;21069;-62
2021/11/28 06:50:31;;;;;;;12.70;3.60;;;;;;;22.80;49.67;100773.61;1946924;74;21134;-60
2021/11/28 06:53:13;;;;;;;6.22;2.77;;;;;;;22.57;49.29;100772.98;1947248;74;21054;-60
2021/11/28 06:55:44;;;;;;;;;;;;;;;22.54;49.03;100767.91;1866502;74;21107;-59
2021/11/28 06:58:34;;;;;;;8.70;3.25;;;;;;;22.81;49.27;100765.05;1944251;74;20163;-61
2021/11/28 07:01:05;;;;;;;4.70;2.40;;;;;;;22.89;47.92;100767.91;1947325;74;21038;-59
2021/11/28 07:03:37;;;;;;;5.28;2.77;;;;;;;22.76;47.06;100768.17;1947544;74;21053;-59
2021/11/28 07:06:21;;;;;;;5.67;2.30;;;;;;;22.44;46.81;100768.36;1926299;74;21529;-59
2021/11/28 07:08:53;;;;;;;6.67;2.15;;;;;;;22.43;46.44;100773.35;1946706;74;21078;-61
2021/11/28 07:11:24;;;;;;;8.85;2.45;;;;;;;21.80;46.70;100768.97;1888869;74;21527;-61
2021/11/28 07:14:00;;;;;;;7.45;2.42;;;;;;;21.34;47.81;100767.46;1947371;74;21129;-59
2021/11/28 07:16:34;;;;;;;7.42;2.45;;;;;;;21.04;48.52;100774.40;1946167;74;21578;-62
2021/11/28 07:19:04;;;;;;;5.85;1.80;;;;;;;21.15;48.46;100769.00;1946286;72;21457;-59
2021/11/28 07:21:46;;;;;;;7.92;2.25;;;;;;;21.70;47.13;100768.88;1904542;74;21042;-59
2021/11/28 07:24:15;;;;;;;5.28;2.15;;;;;;;22.36;45.76;100771.22;1947542;74;21496;-62
2021/11/28 07:26:49;;;;;;;9.18;2.05;;;;;;;22.94;45.17;100765.63;1947471;74;21485;-59
2021/11/28 07:29:19;;;;;;;2.50;1.65;;;;;;;23.39;44.14;100759.75;1944274;74;21069;-61
2021/11/28 07:31:48;;;;;;;5.85;1.85;;;;;;;23.74;43.11;100763.66;1947468;74;21460;-60
2021/11/28 07:34:20;;;;;;;3.85;1.57;;;;;;;23.80;42.56;100757.72;1897102;74;21053;-62
2021/11/28 07:37:07;;;;;;;4.75;1.80;;;;;;;24.02;42.65;100758.38;1947383;74;21104;-59
2021/11/28 07:39:38;;;;;;;5.40;2.35;;;;;;;24.52;41.99;100754.47;1947540;73;21394;-58
2021/11/28 07:42:08;;;;;;;6.53;2.00;;;;;;;24.80;40.67;100751.27;1952236;73;21546;-57
2021/11/28 07:44:49;;;;;;;5.33;1.90;;;;;;;24.55;41.08;100759.56;1940577;73;21053;-60
2021/11/28 07:47:36;;;;;;;5.55;1.82;;;;;;;24.75;41.25;100752.22;1953789;73;21124;-59
2021/11/28 07:50:14;;;;;;;6.70;2.20;;;;;;;24.38;41.99;100751.77;1952136;73;21021;-60
2021/11/28 07:52:45;;;;;;;4.10;1.82;;;;;;;23.75;42.99;100741.14;1953855;73;21029;-61
2021/11/28 07:55:16;;;;;;;5.90;2.20;;;;;;;23.30;43.80;100736.43;1923042;73;21115;-60
2021/11/28 07:58:03;;;;;;;4.83;2.12;;;;;;;22.66;44.62;100739.11;1953675;73;21037;-60
2021/11/28 08:00:52;;;;;;;6.67;1.80;;;;;;;21.98;45.63;100745.92;1951642;73;21081;-62
2021/11/28 08:03:27;;;;;;;9.35;2.40;;;;;;;21.34;46.63;100746.03;1952990;73;21102;-61
2021/11/28 08:06:06;;;;;;;8.95;2.47;;;;;;;20.75;47.78;100746.89;1895038;73;21053;-62
2021/11/28 08:08:44;;;;;;;6.85;1.77;;;;;;;20.57;48.42;100745.19;1919456;73;21106;-62
2021/11/28 08:11:18;;;;;;;8.48;2.60;;;;;;;20.53;48.66;100745.57;1951572;73;21033;-59
2021/11/28 08:13:48;;;;;;;7.20;2.25;;;;;;;20.71;48.67;100742.77;1953698;73;21058;-61
2021/11/28 08:16:20;;;;;;;4.15;2.33;;;;;;;21.44;47.61;100735.41;1953880;73;21002;-62
2021/11/28 08:18:53;;;;;;;8.25;2.35;;;;;;;22.38;45.69;100733.54;1953818;73;21513;-60
2021/11/28 08:21:29;;;;;;;8.28;2.92;;;;;;;23.82;43.88;100727.50;1953268;73;21123;-60
2021/11/28 08:24:04;;;;;;;4.42;1.92;;;;;;;25.39;41.68;100712.59;1952270;73;21061;-63
2021/11/28 08:26:35;;;;;;;6.53;1.45;;;;;;;26.13;39.85;100712.55;1924252;73;21040;-60
2021/11/28 08:29:08;;;;;;;9.95;2.20;;;;;;;26.36;38.18;100705.23;1953156;73;21027;-60
2021/11/28 08:31:43;;;;;;;5.37;2.02;;;;;;;26.35;38.05;100699.48;1953143;73;21495;-59
2021/11/28 08:34:28;;;;;;;3.58;1.32;;;;;;;26.18;37.52;100702.11;1929908;73;21522;-60
2021/11/28 08:37:21;;;;;;;5.05;2.22;;;;;;;25.92;37.94;100701.30;1941098;73;21045;-62
2021/11/28 08:40:08;;;;;;;5.30;1.98;;;;;;;25.30;38.53;100687.42;1952142;73;21045;-60
2021/11/28 08:42:41;;;;;;;7.87;2.12;;;;;;;25.35;38.42;100686.45;1950169;73;21605;-59
2021/11/28 08:45:14;;;;;;;4.50;1.70;;;;;;;25.60;38.10;100679.88;1951759;73;21552;-60
2021/11/28 08:47:45;;;;;;;4.17;2.02;;;;;;;25.63;37.87;100675.00;1953688;73;21018;-59
2021/11/28 08:50:17;;;;;;;3.08;1.40;;;;;;;25.96;37.50;100681.12;1897497;73;21515;-60
2021/11/28 08:52:47;;;;;;;3.50;1.80;;;;;;;26.30;36.97;100689.67;1953676;73;21022;-59
2021/11/28 08:55:22;;;;;;;4.42;1.60;;;;;;;25.93;36.94;100667.46;1953730;73;21099;-59
2021/11/28 08:57:55;;;;;;;6.30;2.42;;;;;;;25.83;37.17;100669.91;1953829;73;21022;-61
2021/11/28 09:00:31;;;;;;;7.15;2.35;;;;;;;25.74;37.23;100679.28;1949022;73;21033;-59
2021/11/28 09:03:00;;;;;;;6.05;2.00;;;;;;;25.95;37.16;100668.63;1953464;73;21606;-58
2021/11/28 09:05:30;;;;;;;3.67;2.08;;;;;;;25.72;37.04;100675.91;1953869;73;21069;-59
2021/11/28 09:08:00;;;;;;;4.62;1.67;;;;;;;25.97;36.79;100642.36;1953825;73;21091;-60
2021/11/28 09:10:30;;;;;;;3.58;1.80;;;;;;;25.86;36.88;100657.42;1924975;73;21170;-61
2021/11/28 09:12:59;;;;;;;5.70;1.60;;;;;;;25.78;36.66;100660.45;1953653;73;21002;-58
2021/11/28 09:15:33;;;;;;;3.90;1.40;;;;;;;25.69;36.77;100651.95;1953881;73;21021;-61
2021/11/28 09:18:06;;;;;;;6.28;1.90;;;;;;;25.33;37.17;100665.56;1953744;73;21437;-59
2021/11/28 09:20:34;;;;;;;12.25;1.62;;;;;;;25.46;37.50;100641.39;1953647;73;21050;-61
2021/11/28 09:25:35;;;;;;;2.70;1.30;;;;;;;25.75;36.74;100641.89;1953708;73;21030;-61
2021/11/28 09:28:06;;;;;;;6.60;1.85;;;;;;;25.74;36.51;100634.79;1953450;73;21465;-58
2021/11/28 09:30:37;;;;;;;5.03;1.47;;;;;;;26.22;36.58;100628.94;1924930;73;21014;-58
2021/11/28 09:33:06;;;;;;;3.98;1.77;;;;;;;26.52;35.66;100635.56;1951117;73;21449;-59
2021/11/28 09:35:40;;;;;;;5.53;1.77;;;;;;;26.56;35.46;100626.98;1951349;73;21049;-59
2021/11/28 09:38:09;;;;;;;6.70;1.82;;;;;;;26.39;34.94;100614.45;1953655;73;21065;-58
2021/11/28 09:40:42;;;;;;;2.65;1.20;;;;;;;26.47;35.31;100633.37;1953763;73;21491;-58
2021/11/28 09:43:13;;;;;;;7.80;1.70;;;;;;;26.67;35.08;100631.24;1923329;74;21557;-60
2021/11/28 09:45:44;;;;;;;4.87;1.52;;;;;;;26.28;34.99;100620.17;1946716;74;21002;-58
2021/11/28 09:48:21;;;;;;;4.92;1.42;;;;;;;26.09;35.26;100632.94;1946763;74;21445;-58
2021/11/28 09:50:50;;;;;;;4.53;1.62;;;;;;;26.06;35.47;100615.75;1947025;74;21550;-60
2021/11/28 09:53:20;;;;;;;2.30;1.15;;;;;;;25.97;35.47;100611.34;1946854;74;21014;-58
2021/11/28 09:55:55;;;;;;;4.30;1.62;;;;;;;26.38;34.93;100606.87;1946513;73;21048;-58
2021/11/28 09:58:25;;;;;;;;;;;;;;;26.34;35.07;100611.43;1947757;73;21491;-60
2021/11/28 10:00:54;;;;;;;5.60;1.50;;;;;;;26.31;35.05;100608.53;1946711;74;20127;-60
2021/11/28 10:03:26;;;;;;;4.00;1.75;;;;;;;26.78;34.81;100594.92;1946843;74;21530;-58
2021/11/28 10:06:00;;;;;;;2.67;1.32;;;;;;;26.77;34.52;100599.49;1947105;74;21038;-60
2021/11/28 10:08:35;;;;;;;3.52;1.60;;;;;;;26.57;34.68;100598.11;1946700;74;21135;-58
2021/11/28 10:11:08;;;;;;;2.55;1.50;;;;;;;26.71;34.60;100604.75;1946688;72;21007;-60
2021/11/28 10:13:37;;;;;;;7.58;2.33;;;;;;;26.60;34.64;100616.72;1944676;73;21092;-60
2021/11/28 10:16:08;;;;;;;2.45;1.45;;;;;;;26.38;34.54;100589.84;1946747;74;21042;-58
2021/11/28 10:18:38;;;;;;;4.40;1.37;;;;;;;25.96;35.22;100584.84;1946751;74;21006;-59
2021/11/28 10:21:07;;;;;;;4.97;1.65;;;;;;;25.62;35.67;100614.53;1946464;73;21084;-60
2021/11/28 10:24:00;;;;;;;4.10;1.55;;;;;;;24.34;37.67;100638.71;1946327;73;21057;-59
2021/11/28 10:26:30;;;;;;;4.92;2.10;;;;;;;23.45;39.31;100622.64;1946835;74;21014;-58
2021/11/28 10:29:13;;;;;;;4.67;1.70;;;;;;;22.64;40.86;100622.51;1924886;74;21018;-58
2021/11/28 10:31:59;;;;;;;2.22;1.55;;;;;;;22.24;41.67;100631.46;1946784;74;21022;-60
2021/11/28 10:34:45;;;;;;;4.37;1.77;;;;;;;21.36;43.59;100644.52;1946666;74;21026;-58
2021/11/28 10:37:23;;;;;;;2.52;1.20;;;;;;;21.07;44.37;100641.64;1946734;74;20994;-60
2021/11/28 10:39:55;;;;;;;1.98;1.30;;;;;;;20.61;45.55;100645.50;1946754;74;21115;-60
2021/11/28 10:42:30;;;;;;;3.42;1.60;;;;;;;20.15;46.59;100629.19;1947604;73;21503;-58
2021/11/28 10:45:16;;;;;;;3.85;1.70;;;;;;;19.89;47.49;100645.50;1959584;73;21103;-59
2021/11/28 10:47:53;;;;;;;4.08;1.35;;;;;;;19.62;48.16;100638.69;1960083;73;21045;-59
2021/11/28 10:50:30;;;;;;;3.50;1.37;;;;;;;19.46;48.99;100650.20;1960240;73;21037;-59
2021/11/28 10:53:20;;;;;;;6.83;1.65;;;;;;;19.56;48.88;100627.13;1959851;73;21021;-59
2021/11/28 10:55:53;;;;;;;4.08;1.42;;;;;;;19.50;49.10;100635.63;1959644;73;21140;-59
2021/11/28 10:58:27;;;;;;;6.95;1.92;;;;;;;19.38;49.60;100636.58;1959954;73;21103;-60
2021/11/28 11:00:59;;;;;;;2.75;1.52;;;;;;;19.27;50.16;100638.74;1960234;73;21464;-60
2021/11/28 11:03:37;;;;;;;3.33;1.50;;;;;;;19.18;50.45;100630.98;1960027;73;21202;-59
2021/11/28 11:06:24;;;;;;;3.95;1.42;;;;;;;19.11;50.80;100644.42;1960094;73;21017;-60
2021/11/28 11:08:56;;;;;;;6.15;1.60;;;;;;;19.03;50.96;100638.80;1960009;73;21022;-60
2021/11/28 11:11:26;;;;;;;14.33;7.12;;;;;;;18.90;51.47;100631.76;1957193;73;21143;-60
2021/11/28 11:14:00;;;;;;;3.33;2.00;;;;;;;18.83;51.64;100637.64;1960006;73;21113;-59
2021/11/28 11:16:42;;;;;;;3.95;2.12;;;;;;;18.79;52.01;100638.81;1958615;73;21088;-61
2021/11/28 11:19:34;;;;;;;7.30;2.50;;;;;;;18.65;52.40;100625.20;1959235;73;21060;-59
2021/11/28 11:22:25;;;;;;;4.12;2.12;;;;;;;18.56;52.71;100620.55;1911631;74;21064;-60
2021/11/28 11:25:02;;;;;;;3.10;1.32;;;;;;;18.38;53.37;100632.09;1953903;73;21017;-59
2021/11/28 11:27:44;;;;;;;3.37;2.25;;;;;;;18.29;53.76;100620.28;1960380;73;21113;-59
2021/11/28 11:30:20;;;;;;;4.20;2.30;;;;;;;18.23;53.72;100624.73;1928153;73;21104;-61
2021/11/28 11:32:57;;;;;;;3.58;1.62;;;;;;;18.21;53.85;100641.33;1954768;73;21114;-60
2021/11/28 11:35:28;;;;;;;5.25;2.10;;;;;;;18.17;54.01;100622.50;1952482;73;21449;-60
2021/11/28 11:38:04;;;;;;;4.25;3.05;;;;;;;18.18;53.90;100628.21;1925018;74;21426;-60
2021/11/28 11:40:34;;;;;;;4.00;1.50;;;;;;;18.30;53.78;100629.99;1910439;74;21011;-59
2021/11/28 11:43:03;;;;;;;6.05;3.27;;;;;;;18.24;54.06;100618.42;1925897;74;21007;-60
2021/11/28 11:45:36;;;;;;;5.97;2.70;;;;;;;18.05;54.47;100614.44;1926098;74;21104;-59
2021/11/28 11:48:06;;;;;;;4.37;1.62;;;;;;;18.00;54.50;100616.61;1926136;74;21010;-60
2021/11/28 11:50:37;;;;;;;7.22;5.28;;;;;;;17.97;54.68;100611.98;1925970;74;21027;-60
2021/11/28 11:53:10;;;;;;;5.12;2.90;;;;;;;17.96;54.69;100627.09;1926120;74;21031;-59